Time;durP1;ratioP1;P1;durP2;ratioP2;P2;SDS_P1;SDS_P2;PMS_P1;PMS_P2;Temp;Humidity;BMP_temperature;BMP_pressure;BME280_temperature;BME280_humidity;BME280_pressure;Samples;Min_cycle;Max_cycle;Signal;HPM_P1;HPM_P2
2023/01/23 00:01:34;;;;;;;30.65;16.20;;;;;;;;;;4994508;28;20069;-79
2023/01/23 00:04:19;;;;;;;25.67;15.38;;;;;;;;;;4981915;28;20022;-79
2023/01/23 00:07:05;;;;;;;29.13;15.77;;;;;;;;;;4981811;28;20031;-79
2023/01/23 00:09:50;;;;;;;30.48;15.82;;;;;;;;;;4995478;28;20018;-79
2023/01/23 00:12:39;;;;;;;32.40;14.77;;;;;;;;;;4995325;28;20363;-79
2023/01/23 00:15:26;;;;;;;27.33;14.60;;;;;;;;;;4994876;28;20022;-79
2023/01/23 00:18:11;;;;;;;24.38;13.48;;;;;;;;;;4994783;28;20019;-79
2023/01/23 00:20:57;;;;;;;27.73;13.95;;;;;;;;;;4980649;28;20106;-80
2023/01/23 00:23:44;;;;;;;25.08;13.00;;;;;;;;;;4994531;28;20332;-79
2023/01/23 00:26:33;;;;;;;25.33;13.57;;;;;;;;;;4994506;28;20026;-79
2023/01/23 00:29:19;;;;;;;26.17;13.95;;;;;;;;;;4994649;28;20077;-79
2023/01/23 00:32:04;;;;;;;23.63;12.90;;;;;;;;;;4980573;28;20040;-79
2023/01/23 00:34:50;;;;;;;28.65;13.80;;;;;;;;;;4994430;28;20045;-79
2023/01/23 00:37:35;;;;;;;20.83;12.13;;;;;;;;;;4994915;28;20045;-80
2023/01/23 00:40:21;;;;;;;22.20;11.75;;;;;;;;;;4995563;28;20022;-80
2023/01/23 00:43:06;;;;;;;26.05;13.52;;;;;;;;;;4984165;28;20409;-79
2023/01/23 00:45:52;;;;;;;24.35;12.55;;;;;;;;;;4998824;28;20096;-79
2023/01/23 00:48:38;;;;;;;28.15;13.55;;;;;;;;;;4998393;28;20414;-80
2023/01/23 00:51:23;;;;;;;23.65;13.18;;;;;;;;;;4998563;28;20048;-80
2023/01/23 00:54:09;;;;;;;27.48;13.75;;;;;;;;;;4998749;28;20026;-80
2023/01/23 00:56:54;;;;;;;22.17;12.00;;;;;;;;;;4998075;28;20105;-79
2023/01/23 00:59:40;;;;;;;22.83;12.38;;;;;;;;;;4997836;28;20022;-79
2023/01/23 01:02:25;;;;;;;27.50;12.82;;;;;;;;;;4983699;28;20101;-79
2023/01/23 01:05:11;;;;;;;21.77;11.77;;;;;;;;;;4983884;28;20093;-79
2023/01/23 01:07:57;;;;;;;22.42;12.93;;;;;;;;;;4983582;28;20040;-79
2023/01/23 01:10:43;;;;;;;23.65;12.57;;;;;;;;;;4997414;28;20054;-79
2023/01/23 01:13:29;;;;;;;23.48;12.63;;;;;;;;;;4998167;28;20042;-79
2023/01/23 01:16:15;;;;;;;27.70;13.25;;;;;;;;;;4984089;28;20018;-79
2023/01/23 01:19:00;;;;;;;29.10;13.80;;;;;;;;;;4997773;28;20111;-79
2023/01/23 01:21:46;;;;;;;24.83;12.23;;;;;;;;;;4997971;28;20030;-79
2023/01/23 01:24:32;;;;;;;25.77;13.48;;;;;;;;;;4998903;28;20022;-78
2023/01/23 01:27:17;;;;;;;23.35;12.70;;;;;;;;;;4998149;28;20105;-80
2023/01/23 01:30:03;;;;;;;26.20;13.23;;;;;;;;;;4997606;28;20029;-79
2023/01/23 01:32:48;;;;;;;26.83;14.48;;;;;;;;;;4996978;28;20350;-79
2023/01/23 01:35:34;;;;;;;28.73;14.50;;;;;;;;;;4977213;28;20051;-79
2023/01/23 01:38:20;;;;;;;27.85;13.55;;;;;;;;;;4978592;28;20035;-79
2023/01/23 01:41:06;;;;;;;25.02;13.48;;;;;;;;;;4977718;28;20037;-79
2023/01/23 01:43:55;;;;;;;30.85;15.05;;;;;;;;;;4977196;28;20082;-79
2023/01/23 01:46:41;;;;;;;33.22;14.90;;;;;;;;;;4977752;28;20359;-80
2023/01/23 01:49:30;;;;;;;28.17;14.70;;;;;;;;;;4977222;28;20471;-79
2023/01/23 01:52:17;;;;;;;28.90;14.75;;;;;;;;;;4977053;28;20019;-78
2023/01/23 01:55:04;;;;;;;31.95;15.80;;;;;;;;;;4981223;28;20018;-78
2023/01/23 01:57:53;;;;;;;33.88;15.48;;;;;;;;;;4983858;28;20037;-79
2023/01/23 02:00:38;;;;;;;30.75;15.57;;;;;;;;;;4980674;28;20410;-79
2023/01/23 02:03:25;;;;;;;31.63;15.40;;;;;;;;;;4976797;28;20436;-79
2023/01/23 02:06:11;;;;;;;34.70;15.75;;;;;;;;;;4977841;28;20058;-79
2023/01/23 02:08:57;;;;;;;36.65;15.50;;;;;;;;;;4977335;28;20487;-78
2023/01/23 02:11:42;;;;;;;30.70;15.20;;;;;;;;;;4976861;28;20134;-79
2023/01/23 02:14:28;;;;;;;30.60;15.77;;;;;;;;;;4976170;28;20023;-79
2023/01/23 02:17:13;;;;;;;31.52;15.32;;;;;;;;;;4976277;28;20448;-80
2023/01/23 02:19:59;;;;;;;29.38;16.00;;;;;;;;;;4976688;28;20105;-80
2023/01/23 02:23:09;;;;;;;27.95;14.13;;;;;;;;;;4976480;28;20077;-80
2023/01/23 02:26:06;;;;;;;30.33;14.77;;;;;;;;;;4977028;28;20045;-79
2023/01/23 02:28:52;;;;;;;27.23;14.90;;;;;;;;;;4976377;28;20034;-80
2023/01/23 02:31:38;;;;;;;28.98;14.32;;;;;;;;;;4976861;28;20444;-80
2023/01/23 02:34:24;;;;;;;35.03;15.23;;;;;;;;;;4976533;28;20107;-80
2023/01/23 02:37:11;;;;;;;27.95;14.88;;;;;;;;;;4975994;28;20046;-79
2023/01/23 02:39:56;;;;;;;33.67;15.57;;;;;;;;;;4976131;28;20110;-79
2023/01/23 02:42:43;;;;;;;40.72;16.02;;;;;;;;;;4976586;28;20381;-78
2023/01/23 02:45:30;;;;;;;35.85;15.82;;;;;;;;;;4976085;28;20027;-80
2023/01/23 02:48:15;;;;;;;35.53;16.05;;;;;;;;;;4975786;28;20026;-80
2023/01/23 02:51:01;;;;;;;36.92;15.65;;;;;;;;;;4977056;28;20098;-80
2023/01/23 02:53:47;;;;;;;41.33;16.65;;;;;;;;;;4977004;28;20023;-80
2023/01/23 02:56:33;;;;;;;33.33;15.68;;;;;;;;;;4976691;28;20387;-79
2023/01/23 03:02:23;;;;;;;38.22;15.40;;;;;;;;;;4976973;28;20457;-80
2023/01/23 03:05:08;;;;;;;35.90;15.25;;;;;;;;;;4975324;28;20463;-79
2023/01/23 03:07:54;;;;;;;38.25;14.55;;;;;;;;;;4975717;28;20030;-80
2023/01/23 03:10:39;;;;;;;32.15;14.23;;;;;;;;;;4976646;28;20027;-80
2023/01/23 03:13:25;;;;;;;32.67;13.90;;;;;;;;;;4992765;28;20018;-80
2023/01/23 03:16:10;;;;;;;36.03;13.57;;;;;;;;;;4978099;28;20026;-80
2023/01/23 03:18:57;;;;;;;30.33;14.05;;;;;;;;;;4976481;28;20030;-79
2023/01/23 03:21:43;;;;;;;36.47;13.68;;;;;;;;;;4975583;28;20049;-79
2023/01/23 03:24:28;;;;;;;34.53;15.93;;;;;;;;;;4975827;28;20061;-79
2023/01/23 03:27:14;;;;;;;34.55;15.55;;;;;;;;;;4975334;28;20082;-79
2023/01/23 03:30:12;;;;;;;38.17;16.27;;;;;;;;;;4975137;28;20054;-79
2023/01/23 03:32:57;;;;;;;36.75;15.23;;;;;;;;;;4987767;28;20031;-80
2023/01/23 03:35:43;;;;;;;39.60;15.70;;;;;;;;;;4982807;28;20539;-79
2023/01/23 03:38:28;;;;;;;40.95;16.85;;;;;;;;;;4975668;28;20450;-80
2023/01/23 03:41:26;;;;;;;40.50;16.67;;;;;;;;;;4975228;28;20058;-80
2023/01/23 03:44:12;;;;;;;31.90;15.45;;;;;;;;;;4974964;28;20018;-80
2023/01/23 03:46:58;;;;;;;36.83;16.73;;;;;;;;;;4975060;28;20026;-80
2023/01/23 03:49:43;;;;;;;44.55;17.30;;;;;;;;;;4974924;28;20370;-80
2023/01/23 03:52:29;;;;;;;42.95;17.77;;;;;;;;;;4974649;28;20030;-80
2023/01/23 03:55:14;;;;;;;33.42;16.23;;;;;;;;;;4975223;28;20511;-80
2023/01/23 03:58:00;;;;;;;40.00;16.17;;;;;;;;;;4974989;28;20498;-80
2023/01/23 04:00:46;;;;;;;33.92;15.98;;;;;;;;;;4974850;28;20023;-80
2023/01/23 04:03:31;;;;;;;38.28;15.40;;;;;;;;;;4975536;28;20054;-79
2023/01/23 04:06:17;;;;;;;38.08;15.57;;;;;;;;;;4984745;28;20026;-78
2023/01/23 04:09:03;;;;;;;30.98;14.50;;;;;;;;;;4991527;28;20022;-78
2023/01/23 04:11:48;;;;;;;36.50;14.90;;;;;;;;;;4992305;28;20024;-79
2023/01/23 04:14:36;;;;;;;41.58;15.98;;;;;;;;;;4977801;28;20133;-79
2023/01/23 04:17:21;;;;;;;35.88;15.90;;;;;;;;;;4979220;28;20037;-79
2023/01/23 04:20:07;;;;;;;34.03;14.55;;;;;;;;;;4978650;28;20015;-80
2023/01/23 04:22:53;;;;;;;33.90;15.50;;;;;;;;;;4978415;28;20454;-80
2023/01/23 04:25:38;;;;;;;35.47;14.63;;;;;;;;;;4979656;28;20030;-79
2023/01/23 04:28:24;;;;;;;33.10;15.73;;;;;;;;;;4979536;28;20134;-79
2023/01/23 04:31:10;;;;;;;38.10;16.13;;;;;;;;;;4978176;28;20463;-80
2023/01/23 04:33:55;;;;;;;40.38;15.82;;;;;;;;;;4978789;28;20466;-79
2023/01/23 04:36:41;;;;;;;35.35;15.95;;;;;;;;;;4978175;28;20039;-79
2023/01/23 04:39:26;;;;;;;33.30;14.98;;;;;;;;;;4978603;28;20045;-79
2023/01/23 04:42:12;;;;;;;31.40;14.30;;;;;;;;;;4978009;28;20052;-79
2023/01/23 04:44:57;;;;;;;40.08;15.70;;;;;;;;;;4978388;28;20022;-79
2023/01/23 04:47:43;;;;;;;34.60;15.75;;;;;;;;;;4978199;28;20027;-79
2023/01/23 04:50:29;;;;;;;36.42;16.02;;;;;;;;;;4978041;28;20018;-79
2023/01/23 04:53:14;;;;;;;36.67;15.80;;;;;;;;;;4978018;28;20037;-79
2023/01/23 04:56:00;;;;;;;32.80;15.13;;;;;;;;;;4978478;28;20019;-80
2023/01/23 04:58:48;;;;;;;42.88;16.40;;;;;;;;;;4978132;28;20019;-79
2023/01/23 05:01:34;;;;;;;34.65;14.98;;;;;;;;;;4978820;28;20034;-79
2023/01/23 05:04:19;;;;;;;40.08;15.57;;;;;;;;;;4978117;28;20029;-77
2023/01/23 05:07:05;;;;;;;28.02;13.73;;;;;;;;;;4978663;28;20026;-79
2023/01/23 05:09:51;;;;;;;34.50;14.43;;;;;;;;;;4980403;28;20065;-80
2023/01/23 05:12:36;;;;;;;33.25;13.73;;;;;;;;;;4979600;28;20031;-80
2023/01/23 05:15:22;;;;;;;40.17;14.23;;;;;;;;;;4978629;28;20023;-78
2023/01/23 05:18:07;;;;;;;33.30;14.27;;;;;;;;;;4978733;28;20034;-79
2023/01/23 05:20:53;;;;;;;33.20;14.55;;;;;;;;;;4977986;28;20019;-77
2023/01/23 05:23:39;;;;;;;31.50;14.20;;;;;;;;;;4978652;28;20029;-74
2023/01/23 05:26:24;;;;;;;37.35;15.65;;;;;;;;;;4977780;28;20033;-79
2023/01/23 05:29:10;;;;;;;37.63;15.45;;;;;;;;;;4977625;28;20031;-78
2023/01/23 05:31:56;;;;;;;31.15;14.48;;;;;;;;;;4977566;28;20070;-78
2023/01/23 05:34:41;;;;;;;31.83;15.23;;;;;;;;;;4979521;28;20022;-80
2023/01/23 05:37:27;;;;;;;32.85;14.73;;;;;;;;;;4984316;28;20555;-78
2023/01/23 05:40:12;;;;;;;35.65;14.73;;;;;;;;;;4984332;28;20457;-79
2023/01/23 05:42:58;;;;;;;37.00;14.80;;;;;;;;;;5004707;28;20027;-78
2023/01/23 05:45:44;;;;;;;26.40;13.30;;;;;;;;;;4996894;28;20042;-78
2023/01/23 05:48:29;;;;;;;30.92;13.40;;;;;;;;;;4997937;28;20019;-78
2023/01/23 05:51:15;;;;;;;31.55;13.88;;;;;;;;;;4998409;28;20026;-78
2023/01/23 05:54:01;;;;;;;30.20;13.82;;;;;;;;;;5014499;28;20053;-78
2023/01/23 05:56:47;;;;;;;28.15;13.68;;;;;;;;;;5015930;28;20058;-79
2023/01/23 05:59:32;;;;;;;25.70;12.48;;;;;;;;;;5011514;28;20018;-77
2023/01/23 06:02:18;;;;;;;34.95;14.20;;;;;;;;;;5000494;28;20076;-79
2023/01/23 06:05:03;;;;;;;32.17;14.10;;;;;;;;;;5000108;28;20371;-78
2023/01/23 06:07:49;;;;;;;32.30;14.75;;;;;;;;;;5012422;28;20037;-78
2023/01/23 06:10:36;;;;;;;30.42;12.77;;;;;;;;;;5002018;28;20066;-77
2023/01/23 06:13:21;;;;;;;31.20;14.18;;;;;;;;;;5016841;28;20018;-76
2023/01/23 06:16:07;;;;;;;34.60;13.88;;;;;;;;;;5001906;28;20097;-77
2023/01/23 06:18:52;;;;;;;28.95;13.80;;;;;;;;;;5012624;28;20098;-78
2023/01/23 06:21:38;;;;;;;34.83;14.48;;;;;;;;;;5012835;28;20022;-76
2023/01/23 06:24:23;;;;;;;30.90;14.13;;;;;;;;;;5012524;28;20030;-79
2023/01/23 06:27:09;;;;;;;26.08;13.23;;;;;;;;;;5006087;28;20018;-80
2023/01/23 06:29:55;;;;;;;33.70;14.13;;;;;;;;;;4999032;28;20118;-77
2023/01/23 06:32:40;;;;;;;36.42;14.23;;;;;;;;;;4983746;28;20030;-79
2023/01/23 06:35:26;;;;;;;27.50;13.38;;;;;;;;;;4977233;28;20069;-78
2023/01/23 06:38:11;;;;;;;29.40;13.77;;;;;;;;;;4976193;28;20073;-79
2023/01/23 06:40:57;;;;;;;26.65;12.80;;;;;;;;;;4977105;28;20027;-79
2023/01/23 06:43:43;;;;;;;31.60;13.25;;;;;;;;;;4976997;28;20023;-79
2023/01/23 06:46:28;;;;;;;29.05;13.40;;;;;;;;;;4977536;28;20026;-80
2023/01/23 06:49:14;;;;;;;28.75;12.05;;;;;;;;;;4976612;28;20026;-79
2023/01/23 06:51:59;;;;;;;26.95;11.90;;;;;;;;;;4976982;28;20030;-78
2023/01/23 06:54:45;;;;;;;23.98;11.48;;;;;;;;;;4982803;28;20023;-79
2023/01/23 06:57:31;;;;;;;27.30;11.27;;;;;;;;;;4986925;28;20019;-78
2023/01/23 07:00:16;;;;;;;19.48;9.95;;;;;;;;;;4993635;28;20082;-80
2023/01/23 07:03:05;;;;;;;22.95;10.20;;;;;;;;;;4992059;28;20090;-78
2023/01/23 07:05:51;;;;;;;20.55;10.20;;;;;;;;;;4992860;28;20015;-77
2023/01/23 07:08:37;;;;;;;20.85;10.40;;;;;;;;;;4992891;28;20026;-77
2023/01/23 07:11:23;;;;;;;20.58;10.15;;;;;;;;;;4992666;28;20098;-78
2023/01/23 07:14:08;;;;;;;22.23;10.13;;;;;;;;;;4988248;28;20022;-78
2023/01/23 07:16:54;;;;;;;23.65;10.80;;;;;;;;;;4989801;28;20058;-78
2023/01/23 07:19:40;;;;;;;24.63;10.65;;;;;;;;;;4992289;28;20397;-78
2023/01/23 07:22:25;;;;;;;22.60;10.18;;;;;;;;;;4989664;28;20015;-78
2023/01/23 07:25:11;;;;;;;27.63;10.98;;;;;;;;;;4988527;28;20037;-77
2023/01/23 07:27:56;;;;;;;21.85;10.27;;;;;;;;;;4985942;28;20488;-79
2023/01/23 07:30:42;;;;;;;22.20;10.05;;;;;;;;;;4991626;28;20029;-79
2023/01/23 07:33:28;;;;;;;19.58;9.52;;;;;;;;;;4986540;28;20019;-78
2023/01/23 07:36:13;;;;;;;20.83;9.13;;;;;;;;;;4990590;28;20038;-78
2023/01/23 07:38:59;;;;;;;24.10;10.15;;;;;;;;;;4998588;28;20022;-78
2023/01/23 07:41:45;;;;;;;24.83;9.52;;;;;;;;;;4983606;28;20015;-78
2023/01/23 07:44:30;;;;;;;20.83;9.27;;;;;;;;;;4999847;28;20443;-78
2023/01/23 07:47:16;;;;;;;24.40;9.75;;;;;;;;;;4998694;28;20057;-78
2023/01/23 07:50:01;;;;;;;20.33;9.73;;;;;;;;;;4996698;28;20475;-78
2023/01/23 07:52:47;;;;;;;20.13;9.77;;;;;;;;;;4985167;28;20041;-78
2023/01/23 07:55:33;;;;;;;19.88;9.10;;;;;;;;;;4999580;28;20355;-78
2023/01/23 07:58:19;;;;;;;22.17;10.55;;;;;;;;;;4996593;28;20073;-79
2023/01/23 08:01:11;;;;;;;19.65;10.00;;;;;;;;;;4990012;28;20022;-78
2023/01/23 08:03:56;;;;;;;20.17;9.52;;;;;;;;;;4985639;28;20018;-78
2023/01/23 08:06:42;;;;;;;23.58;11.18;;;;;;;;;;4996340;28;20041;-78
2023/01/23 08:09:27;;;;;;;24.35;10.23;;;;;;;;;;4996123;28;20033;-79
2023/01/23 08:12:13;;;;;;;19.15;9.50;;;;;;;;;;4998417;28;20026;-78
2023/01/23 08:14:58;;;;;;;21.25;10.70;;;;;;;;;;4986887;28;20037;-79
2023/01/23 08:17:44;;;;;;;18.77;9.57;;;;;;;;;;4991622;28;20113;-77
2023/01/23 08:20:30;;;;;;;20.55;9.38;;;;;;;;;;4987216;28;20092;-77
2023/01/23 08:23:15;;;;;;;17.73;9.00;;;;;;;;;;4996128;28;20014;-78
2023/01/23 08:26:03;;;;;;;21.50;9.40;;;;;;;;;;4982199;28;20363;-78
2023/01/23 08:28:49;;;;;;;19.05;9.60;;;;;;;;;;4996236;28;20092;-78
2023/01/23 08:31:34;;;;;;;20.55;9.55;;;;;;;;;;4995943;28;20089;-78
2023/01/23 08:34:20;;;;;;;20.60;8.95;;;;;;;;;;4995110;28;20022;-77
2023/01/23 08:37:06;;;;;;;24.25;9.27;;;;;;;;;;4994878;28;20364;-78
2023/01/23 08:39:51;;;;;;;22.45;9.85;;;;;;;;;;4996053;28;20404;-79
2023/01/23 08:42:37;;;;;;;21.20;9.75;;;;;;;;;;4982191;28;20029;-78
2023/01/23 08:45:24;;;;;;;25.05;11.45;;;;;;;;;;4995270;28;20125;-78
2023/01/23 08:48:09;;;;;;;20.05;9.82;;;;;;;;;;4981892;28;20023;-77
2023/01/23 08:51:00;;;;;;;20.88;9.48;;;;;;;;;;4981705;28;20018;-78
2023/01/23 08:53:46;;;;;;;23.20;9.50;;;;;;;;;;4994803;28;20041;-77
2023/01/23 08:56:32;;;;;;;23.38;10.55;;;;;;;;;;4995835;28;20022;-78
2023/01/23 08:59:20;;;;;;;21.45;10.13;;;;;;;;;;4994413;28;20029;-77
2023/01/23 09:02:12;;;;;;;20.70;10.52;;;;;;;;;;4997431;28;20018;-78
2023/01/23 09:04:57;;;;;;;18.83;8.50;;;;;;;;;;4985048;28;20090;-77
2023/01/23 09:07:46;;;;;;;19.00;9.40;;;;;;;;;;4999344;28;20030;-77
2023/01/23 09:10:31;;;;;;;18.30;9.05;;;;;;;;;;4985045;28;20034;-77
2023/01/23 09:13:18;;;;;;;18.80;9.40;;;;;;;;;;4999013;28;20347;-79
2023/01/23 09:16:04;;;;;;;18.35;8.75;;;;;;;;;;4998934;28;20065;-77
2023/01/23 09:18:50;;;;;;;18.00;9.20;;;;;;;;;;4998342;28;20019;-78
2023/01/23 09:21:35;;;;;;;22.15;9.43;;;;;;;;;;4999771;28;20027;-78
2023/01/23 09:24:21;;;;;;;19.60;10.05;;;;;;;;;;4985141;28;20022;-79
2023/01/23 09:27:07;;;;;;;29.77;14.88;;;;;;;;;;4999501;28;20474;-78
2023/01/23 09:29:52;;;;;;;20.27;9.40;;;;;;;;;;4985548;28;20038;-78
2023/01/23 09:32:41;;;;;;;22.05;9.10;;;;;;;;;;4985427;28;20481;-81
2023/01/23 09:35:26;;;;;;;19.77;8.63;;;;;;;;;;4998741;28;20093;-79
2023/01/23 09:38:12;;;;;;;18.30;8.10;;;;;;;;;;4998161;28;20108;-79
2023/01/23 09:40:58;;;;;;;15.93;8.32;;;;;;;;;;4985985;28;20018;-79
2023/01/23 09:43:46;;;;;;;18.52;8.60;;;;;;;;;;5004479;28;20082;-77
2023/01/23 09:46:38;;;;;;;16.38;8.50;;;;;;;;;;4993604;28;20049;-77
2023/01/23 09:49:37;;;;;;;16.30;8.30;;;;;;;;;;5005130;28;20030;-79
2023/01/23 09:52:24;;;;;;;21.40;9.82;;;;;;;;;;4984226;28;20064;-78
2023/01/23 09:55:28;;;;;;;19.10;9.73;;;;;;;;;;4983995;28;20026;-79
2023/01/23 09:58:17;;;;;;;18.17;8.65;;;;;;;;;;4983160;28;20447;-78
2023/01/23 10:01:02;;;;;;;17.80;9.20;;;;;;;;;;4998570;28;20080;-78
2023/01/23 10:03:51;;;;;;;17.98;8.95;;;;;;;;;;4983513;28;20019;-78
2023/01/23 10:06:59;;;;;;;18.88;7.72;;;;;;;;;;4997033;28;20398;-79
2023/01/23 10:09:44;;;;;;;19.40;8.65;;;;;;;;;;4971853;28;20073;-79
2023/01/23 10:12:41;;;;;;;17.17;8.73;;;;;;;;;;4997584;28;20018;-78
2023/01/23 10:15:43;;;;;;;14.75;7.93;;;;;;;;;;4997163;28;20168;-77
2023/01/23 10:18:35;;;;;;;18.80;9.30;;;;;;;;;;4983295;28;20023;-78
2023/01/23 10:21:28;;;;;;;19.75;8.68;;;;;;;;;;4997718;28;20022;-79
2023/01/23 10:24:32;;;;;;;20.70;9.18;;;;;;;;;;4983445;28;20027;-79
2023/01/23 10:27:22;;;;;;;22.13;9.63;;;;;;;;;;4998118;28;20117;-78
2023/01/23 10:30:10;;;;;;;16.90;8.65;;;;;;;;;;4983465;28;20053;-79
2023/01/23 10:32:56;;;;;;;17.90;9.15;;;;;;;;;;4997647;28;20387;-79
2023/01/23 10:35:49;;;;;;;22.13;9.82;;;;;;;;;;4997150;28;20077;-78
2023/01/23 10:38:40;;;;;;;22.08;9.82;;;;;;;;;;4997676;28;20054;-78
2023/01/23 10:41:26;;;;;;;17.00;8.82;;;;;;;;;;4997285;28;20037;-77
2023/01/23 10:44:18;;;;;;;22.60;9.13;;;;;;;;;;4983780;28;20101;-78
2023/01/23 10:47:21;;;;;;;20.65;8.85;;;;;;;;;;4983603;28;20090;-78
2023/01/23 10:50:07;;;;;;;23.75;9.73;;;;;;;;;;4983106;28;20022;-78
2023/01/23 10:53:04;;;;;;;18.02;8.85;;;;;;;;;;4982825;28;20025;-79
2023/01/23 10:55:50;;;;;;;21.10;9.52;;;;;;;;;;4983455;28;20033;-77
2023/01/23 10:58:37;;;;;;;21.95;9.13;;;;;;;;;;4983881;28;20027;-78
2023/01/23 11:01:30;;;;;;;26.52;11.00;;;;;;;;;;4983242;28;20023;-79
2023/01/23 11:04:20;;;;;;;25.80;10.13;;;;;;;;;;4982972;28;20032;-79
2023/01/23 11:07:08;;;;;;;26.25;9.88;;;;;;;;;;4996286;28;20058;-77
2023/01/23 11:09:56;;;;;;;26.77;10.73;;;;;;;;;;4982588;28;20104;-78
2023/01/23 11:12:46;;;;;;;27.02;11.40;;;;;;;;;;4996703;28;20450;-79
2023/01/23 11:15:33;;;;;;;28.50;12.30;;;;;;;;;;4995834;28;20512;-78
2023/01/23 11:18:27;;;;;;;26.30;11.43;;;;;;;;;;4995608;28;20454;-78
2023/01/23 11:21:25;;;;;;;30.85;12.77;;;;;;;;;;4996205;28;20018;-79
2023/01/23 11:24:26;;;;;;;25.80;11.50;;;;;;;;;;4981634;28;20025;-79
2023/01/23 11:27:14;;;;;;;29.02;12.68;;;;;;;;;;4995767;28;20176;-78
2023/01/23 11:30:00;;;;;;;28.33;11.73;;;;;;;;;;4996036;28;20089;-78
2023/01/23 11:32:55;;;;;;;24.67;11.85;;;;;;;;;;4981948;28;20113;-78
2023/01/23 11:35:49;;;;;;;28.10;11.98;;;;;;;;;;4978692;28;20404;-78
2023/01/23 11:38:39;;;;;;;26.63;11.57;;;;;;;;;;4975544;28;20030;-78
2023/01/23 11:41:28;;;;;;;25.98;12.10;;;;;;;;;;4975333;28;20055;-78
2023/01/23 11:44:18;;;;;;;27.13;11.95;;;;;;;;;;4976204;28;20109;-78
2023/01/23 11:47:04;;;;;;;23.00;12.02;;;;;;;;;;4975123;28;20018;-78
2023/01/23 11:50:11;;;;;;;24.30;11.98;;;;;;;;;;4975892;28;20308;-79
2023/01/23 11:53:01;;;;;;;25.45;10.68;;;;;;;;;;4986858;28;20047;-78
2023/01/23 11:55:56;;;;;;;26.30;11.65;;;;;;;;;;4984551;28;20027;-78
2023/01/23 11:59:12;;;;;;;27.30;11.55;;;;;;;;;;4989562;28;20022;-78
2023/01/23 12:01:57;;;;;;;23.38;10.57;;;;;;;;;;4976760;28;20027;-78
2023/01/23 12:05:01;;;;;;;31.88;11.77;;;;;;;;;;4975863;28;20034;-78
2023/01/23 12:08:07;;;;;;;26.25;11.90;;;;;;;;;;4975247;28;20423;-79
2023/01/23 12:11:02;;;;;;;30.90;13.07;;;;;;;;;;4974366;28;20031;-79
2023/01/23 12:13:47;;;;;;;26.95;12.05;;;;;;;;;;4974574;28;20019;-78
2023/01/23 12:16:51;;;;;;;27.95;13.05;;;;;;;;;;4975765;28;20527;-75
2023/01/23 12:20:00;;;;;;;27.23;12.75;;;;;;;;;;4990983;28;20023;-78
2023/01/23 12:22:52;;;;;;;27.95;12.98;;;;;;;;;;4984286;28;20412;-77
2023/01/23 12:25:39;;;;;;;28.92;12.68;;;;;;;;;;4975284;28;20040;-78
2023/01/23 12:28:30;;;;;;;25.63;12.70;;;;;;;;;;4974599;28;20436;-78
2023/01/23 12:31:31;;;;;;;22.08;11.65;;;;;;;;;;4975202;28;20363;-78
2023/01/23 12:34:35;;;;;;;26.73;12.23;;;;;;;;;;4975350;28;20023;-79
2023/01/23 12:37:33;;;;;;;28.17;12.02;;;;;;;;;;4984400;28;20390;-78
2023/01/23 12:40:25;;;;;;;33.15;13.27;;;;;;;;;;4998771;28;20486;-77
2023/01/23 12:43:27;;;;;;;32.20;13.82;;;;;;;;;;4998381;28;20038;-77
2023/01/23 12:46:22;;;;;;;27.35;12.23;;;;;;;;;;4986049;28;20057;-78
2023/01/23 12:49:26;;;;;;;31.67;13.80;;;;;;;;;;4998684;28;20431;-79
2023/01/23 12:52:30;;;;;;;32.95;14.82;;;;;;;;;;4997929;28;20027;-79
2023/01/23 12:55:21;;;;;;;33.88;14.82;;;;;;;;;;4985098;28;20030;-77
2023/01/23 12:58:11;;;;;;;26.23;12.20;;;;;;;;;;4984847;28;20100;-78
2023/01/23 13:00:56;;;;;;;35.22;14.00;;;;;;;;;;4997709;28;20105;-77
2023/01/23 13:03:54;;;;;;;30.67;12.65;;;;;;;;;;4985081;28;20032;-76
2023/01/23 13:06:56;;;;;;;31.95;13.88;;;;;;;;;;4985283;28;20101;-77
2023/01/23 13:09:54;;;;;;;31.98;14.32;;;;;;;;;;4997759;28;20022;-77
2023/01/23 13:12:39;;;;;;;33.10;13.23;;;;;;;;;;4998184;28;20022;-76
2023/01/23 13:15:32;;;;;;;34.50;13.15;;;;;;;;;;4984826;28;20042;-78
2023/01/23 13:18:23;;;;;;;30.05;13.10;;;;;;;;;;4997937;28;20026;-78
2023/01/23 13:27:46;;;;;;;30.33;14.18;;;;;;;;;;4998982;28;20029;-76
2023/01/23 13:30:32;;;;;;;31.48;13.45;;;;;;;;;;4997550;28;20168;-79
2023/01/23 13:33:38;;;;;;;30.13;13.25;;;;;;;;;;4997199;28;20089;-78
2023/01/23 13:36:25;;;;;;;29.08;12.93;;;;;;;;;;4983247;28;20121;-78
2023/01/23 13:39:18;;;;;;;24.92;12.80;;;;;;;;;;4984328;28;20060;-77
2023/01/23 13:42:13;;;;;;;25.85;12.70;;;;;;;;;;4983534;28;20374;-76
2023/01/23 13:45:17;;;;;;;27.88;12.52;;;;;;;;;;4997984;28;20022;-77
2023/01/23 13:51:23;;;;;;;27.00;11.98;;;;;;;;;;5000018;28;20514;-77
2023/01/23 13:57:31;;;;;;;26.45;11.95;;;;;;;;;;4973244;28;20057;-76
2023/01/23 14:00:18;;;;;;;24.70;12.60;;;;;;;;;;4984173;28;20022;-77
2023/01/23 14:06:32;;;;;;;38.58;13.63;;;;;;;;;;4997244;28;20022;-73
2023/01/23 14:09:26;;;;;;;31.08;13.95;;;;;;;;;;4983804;28;20029;-77
2023/01/23 14:12:11;;;;;;;29.10;13.20;;;;;;;;;;4996623;28;20435;-76
2023/01/23 14:18:03;;;;;;;27.35;12.02;;;;;;;;;;4997804;28;20110;-76
2023/01/23 14:20:50;;;;;;;28.95;12.27;;;;;;;;;;4983406;28;20045;-77
2023/01/23 14:23:37;;;;;;;25.42;11.90;;;;;;;;;;4996495;28;20033;-73
2023/01/23 14:26:27;;;;;;;27.45;11.68;;;;;;;;;;4996293;28;20022;-78
2023/01/23 14:29:25;;;;;;;23.58;10.80;;;;;;;;;;4983596;28;20084;-76
2023/01/23 14:32:24;;;;;;;29.65;12.25;;;;;;;;;;4996302;28;20396;-77
2023/01/23 14:35:26;;;;;;;25.92;11.00;;;;;;;;;;4996093;28;20400;-77
2023/01/23 14:38:17;;;;;;;29.23;11.23;;;;;;;;;;4996281;28;20367;-76
2023/01/23 14:41:04;;;;;;;25.15;11.82;;;;;;;;;;4996401;28;20097;-76
2023/01/23 14:43:52;;;;;;;26.60;12.18;;;;;;;;;;4996048;28;20027;-76
2023/01/23 14:46:42;;;;;;;24.48;12.10;;;;;;;;;;4996299;28;20022;-77
2023/01/23 14:49:35;;;;;;;30.48;12.57;;;;;;;;;;4982735;28;20032;-76
2023/01/23 14:52:25;;;;;;;28.08;12.02;;;;;;;;;;4995633;28;20033;-76
2023/01/23 14:55:19;;;;;;;25.70;11.95;;;;;;;;;;4996224;28;20037;-78
2023/01/23 14:58:06;;;;;;;27.80;11.43;;;;;;;;;;4995519;28;20022;-76
2023/01/23 15:00:52;;;;;;;27.30;11.93;;;;;;;;;;4995522;28;20054;-76
2023/01/23 15:03:42;;;;;;;24.95;12.05;;;;;;;;;;4995582;28;20463;-76
2023/01/23 15:06:28;;;;;;;31.77;12.43;;;;;;;;;;4995884;28;20042;-76
2023/01/23 15:09:15;;;;;;;33.70;13.75;;;;;;;;;;4981791;28;20022;-76
2023/01/23 15:12:05;;;;;;;28.73;12.68;;;;;;;;;;4995944;28;20034;-76
2023/01/23 15:14:53;;;;;;;36.08;14.07;;;;;;;;;;4982342;28;20520;-76
2023/01/23 15:17:41;;;;;;;26.80;12.23;;;;;;;;;;4995817;28;20038;-77
2023/01/23 15:20:35;;;;;;;28.85;12.68;;;;;;;;;;4995688;28;20025;-77
2023/01/23 15:23:27;;;;;;;31.30;13.10;;;;;;;;;;4994986;28;20046;-78
2023/01/23 15:26:23;;;;;;;30.10;13.20;;;;;;;;;;4982486;28;20022;-77
2023/01/23 15:29:08;;;;;;;29.92;12.32;;;;;;;;;;4983585;28;20018;-77
2023/01/23 15:31:54;;;;;;;27.60;12.50;;;;;;;;;;4996620;28;20117;-76
2023/01/23 15:34:40;;;;;;;26.75;12.75;;;;;;;;;;4985308;28;20022;-77
2023/01/23 15:37:26;;;;;;;31.70;13.20;;;;;;;;;;4996327;28;20034;-77
2023/01/23 15:40:17;;;;;;;26.95;13.35;;;;;;;;;;4981945;28;20030;-77
2023/01/23 15:43:16;;;;;;;35.45;13.88;;;;;;;;;;4995359;28;20061;-77
2023/01/23 15:46:02;;;;;;;30.17;13.75;;;;;;;;;;4994802;28;20050;-76
2023/01/23 15:48:47;;;;;;;30.73;14.13;;;;;;;;;;4995188;28;20014;-77
2023/01/23 15:51:33;;;;;;;31.92;13.13;;;;;;;;;;4981984;28;20022;-77
2023/01/23 15:54:23;;;;;;;28.80;13.95;;;;;;;;;;4981890;28;20018;-77
2023/01/23 15:57:11;;;;;;;33.63;13.27;;;;;;;;;;4981825;28;20038;-76
2023/01/23 15:59:57;;;;;;;32.22;13.82;;;;;;;;;;4982311;28;20014;-75
2023/01/23 16:02:43;;;;;;;31.17;14.27;;;;;;;;;;4995365;28;20447;-76
2023/01/23 16:05:31;;;;;;;30.70;14.80;;;;;;;;;;4981330;28;20109;-76
2023/01/23 16:08:19;;;;;;;35.60;14.98;;;;;;;;;;4981638;28;20088;-77
2023/01/23 16:11:05;;;;;;;36.83;18.35;;;;;;;;;;4985637;28;20046;-75
2023/01/23 16:13:50;;;;;;;30.65;14.82;;;;;;;;;;4998746;28;20041;-76
2023/01/23 16:16:38;;;;;;;33.13;15.07;;;;;;;;;;4999456;28;20057;-76
2023/01/23 16:19:24;;;;;;;35.80;15.73;;;;;;;;;;4985584;28;20018;-76
2023/01/23 16:22:14;;;;;;;33.00;14.75;;;;;;;;;;4999579;28;20045;-77
2023/01/23 16:24:59;;;;;;;38.42;16.45;;;;;;;;;;4998710;28;20379;-77
2023/01/23 16:27:45;;;;;;;35.22;15.20;;;;;;;;;;5005515;28;20059;-76
2023/01/23 16:30:34;;;;;;;30.35;13.30;;;;;;;;;;5009627;28;20072;-77
2023/01/23 16:33:20;;;;;;;33.13;12.98;;;;;;;;;;4999380;28;20023;-77
2023/01/23 16:36:06;;;;;;;28.55;14.15;;;;;;;;;;4979253;28;20058;-77
2023/01/23 16:38:54;;;;;;;34.90;13.80;;;;;;;;;;4978593;28;20026;-77
2023/01/23 16:41:40;;;;;;;32.38;14.52;;;;;;;;;;4978521;28;20022;-77
2023/01/23 16:44:26;;;;;;;30.88;13.27;;;;;;;;;;4978756;28;20474;-76